Time;durP1;ratioP1;P1;durP2;ratioP2;P2;SDS_P1;SDS_P2;PMS_P1;PMS_P2;Temp;Humidity;BMP_temperature;BMP_pressure;BME280_temperature;BME280_humidity;BME280_pressure;Samples;Min_cycle;Max_cycle;Signal;HPM_P1;HPM_P2
2023/01/01 00:01:43;;;;;;;114.15;48.00;;;11.90;69.30;;;;;;4973450;28;20117;-80
2023/01/01 00:04:13;;;;;;;155.35;56.00;;;11.50;71.20;;;;;;4973911;28;20050;-79
2023/01/01 00:06:40;;;;;;;180.23;61.95;;;11.30;72.00;;;;;;4973915;28;20466;-78
2023/01/01 00:11:51;;;;;;;116.25;49.47;;;12.60;69.20;;;;;;4967197;28;20177;-79
2023/01/01 00:14:16;;;;;;;117.70;51.33;;;13.30;66.50;;;;;;4975372;28;20471;-80
2023/01/01 00:16:42;;;;;;;103.75;46.28;;;13.40;65.80;;;;;;4973933;28;20023;-81
2023/01/01 00:19:08;;;;;;;125.82;50.88;;;13.10;65.90;;;;;;4974319;28;20501;-78
2023/01/01 00:21:33;;;;;;;115.30;47.00;;;13.00;67.30;;;;;;4971330;28;20027;-80
2023/01/01 00:23:59;;;;;;;98.60;44.20;;;13.30;65.90;;;;;;4987618;28;20054;-80
2023/01/01 00:26:25;;;;;;;101.78;45.03;;;13.60;65.60;;;;;;4977134;28;20034;-80
2023/01/01 00:28:50;;;;;;;97.20;45.10;;;13.80;64.60;;;;;;4974162;28;20086;-79
2023/01/01 00:31:18;;;;;;;118.82;46.22;;;14.00;64.10;;;;;;4987359;28;20027;-78
2023/01/01 00:33:45;;;;;;;99.15;43.17;;;14.10;63.60;;;;;;4970920;28;20015;-78
2023/01/01 00:36:13;;;;;;;113.68;44.55;;;14.20;62.70;;;;;;4983632;28;20061;-79
2023/01/01 00:38:40;;;;;;;113.63;46.97;;;14.20;62.90;;;;;;4973691;28;20023;-78
2023/01/01 00:41:06;;;;;;;104.80;46.33;;;14.30;62.40;;;;;;4974183;28;20413;-79
2023/01/01 00:43:31;;;;;;;103.30;44.97;;;14.20;62.20;;;;;;4627917;28;10000445;-79
2023/01/01 00:45:57;;;;;;;95.55;43.92;;;14.10;62.20;;;;;;4988176;28;20481;-77
2023/01/01 00:48:23;;;;;;;129.93;49.00;;;14.20;62.20;;;;;;4989249;28;20085;-80
2023/01/01 00:50:50;;;;;;;114.07;45.35;;;14.40;62.00;;;;;;4989803;28;20042;-81
2023/01/01 00:53:16;;;;;;;114.25;47.20;;;14.30;62.10;;;;;;4974329;28;20044;-79
2023/01/01 00:55:45;;;;;;;109.30;48.03;;;14.10;62.60;;;;;;4970291;28;20514;-80
2023/01/01 00:58:11;;;;;;;100.70;45.65;;;14.00;62.80;;;;;;4954330;29;20031;-80
2023/01/01 01:00:37;;;;;;;110.97;46.53;;;14.10;62.00;;;;;;4954616;28;20030;-79
2023/01/01 01:03:03;;;;;;;113.47;46.20;;;14.10;62.00;;;;;;4954113;28;20019;-82
2023/01/01 01:05:31;;;;;;;95.85;44.17;;;14.00;62.60;;;;;;4955155;28;20091;-80
2023/01/01 01:07:57;;;;;;;107.55;45.83;;;13.90;62.20;;;;;;4955539;28;20090;-83
2023/01/01 01:10:24;;;;;;;77.72;39.50;;;13.80;62.70;;;;;;4953697;29;20024;-80
2023/01/01 01:12:54;;;;;;;76.32;38.20;;;13.80;62.10;;;;;;4966640;28;20027;-80
2023/01/01 01:15:20;;;;;;;84.57;40.42;;;13.10;63.20;;;;;;4974713;28;20022;-80
2023/01/01 01:17:46;;;;;;;79.03;38.30;;;12.40;65.70;;;;;;4972848;28;20114;-83
2023/01/01 01:20:11;;;;;;;80.18;38.38;;;12.00;66.80;;;;;;4990211;28;20162;-82
2023/01/01 01:22:38;;;;;;;84.70;40.03;;;12.00;66.90;;;;;;4975178;28;20361;-83
2023/01/01 01:25:05;;;;;;;84.38;38.88;;;12.20;67.40;;;;;;4973237;28;20075;-80
2023/01/01 01:27:31;;;;;;;87.40;39.75;;;12.70;66.20;;;;;;4974270;28;20077;-80
2023/01/01 01:29:56;;;;;;;80.40;36.92;;;13.20;64.50;;;;;;4972697;28;20378;-80
2023/01/01 01:32:22;;;;;;;76.20;37.03;;;13.20;64.00;;;;;;4988369;28;20027;-82
2023/01/01 01:34:48;;;;;;;81.32;38.55;;;12.80;64.80;;;;;;4973109;28;20011;-81
2023/01/01 01:37:14;;;;;;;77.95;38.80;;;12.50;65.30;;;;;;4973069;28;20035;-81
2023/01/01 01:39:39;;;;;;;82.18;40.40;;;12.20;66.40;;;;;;4972788;28;20077;-78
2023/01/01 01:42:05;;;;;;;90.57;39.45;;;11.70;67.60;;;;;;4974543;28;20027;-81
2023/01/01 01:44:46;;;;;;;113.10;44.10;;;10.60;71.10;;;;;;4973831;28;20022;-78
2023/01/01 01:47:36;;;;;;;99.32;43.08;;;10.50;72.30;;;;;;4968731;28;20756;-80
2023/01/01 01:50:13;;;;;;;103.93;43.30;;;10.30;72.10;;;;;;4954919;29;20085;-80
2023/01/01 01:52:50;;;;;;;123.15;46.88;;;10.70;72.10;;;;;;4953417;28;20546;-79
2023/01/01 01:55:16;;;;;;;135.68;51.78;;;11.30;70.70;;;;;;4953310;29;20463;-78
2023/01/01 01:57:42;;;;;;;125.18;48.80;;;11.90;69.60;;;;;;4953331;29;20023;-80
2023/01/01 02:00:09;;;;;;;127.40;50.55;;;12.70;67.60;;;;;;4953931;28;20038;-79
2023/01/01 02:02:40;;;;;;;112.57;47.03;;;13.20;65.50;;;;;;4954674;28;20020;-79
2023/01/01 02:05:06;;;;;;;102.05;43.20;;;13.40;63.70;;;;;;4972835;28;20114;-81
2023/01/01 02:07:33;;;;;;;96.35;43.00;;;13.20;64.20;;;;;;4972226;28;20038;-78
2023/01/01 02:10:01;;;;;;;90.32;39.88;;;12.50;65.20;;;;;;4971939;28;20019;-79
2023/01/01 02:12:27;;;;;;;83.13;39.58;;;11.80;67.40;;;;;;4970823;28;20030;-79
2023/01/01 02:14:53;;;;;;;97.20;43.47;;;11.40;69.60;;;;;;4972528;28;20094;-79
2023/01/01 02:17:58;;;;;;;88.43;40.75;;;11.80;69.60;;;;;;4992099;28;20037;-79
2023/01/01 02:20:49;;;;;;;75.78;36.38;;;12.60;67.10;;;;;;4869321;29;20430;-80
2023/01/01 02:23:36;;;;;;;79.28;36.67;;;13.00;64.90;;;;;;4880205;29;20035;-79
2023/01/01 02:26:01;;;;;;;59.95;31.08;;;12.90;64.80;;;;;;4880455;29;20033;-80
2023/01/01 02:28:41;;;;;;;71.45;36.35;;;12.30;66.70;;;;;;4880581;29;20036;-80
2023/01/01 02:31:09;;;;;;;86.88;40.35;;;12.20;67.20;;;;;;4880222;29;20040;-79
2023/01/01 02:33:35;;;;;;;62.85;33.08;;;12.10;67.30;;;;;;4868756;29;20025;-79
2023/01/01 02:36:05;;;;;;;65.25;34.10;;;11.70;69.10;;;;;;4862000;29;20480;-82
2023/01/01 02:38:36;;;;;;;55.28;30.25;;;11.90;69.20;;;;;;4871969;29;20045;-78
2023/01/01 02:41:20;;;;;;;;;;;12.30;67.80;;;;;;4853454;29;20025;-79
2023/01/01 02:43:46;;;;;;;63.72;33.35;;;12.40;67.30;;;;;;4872703;29;19999;-79
2023/01/01 02:46:11;;;;;;;64.18;32.75;;;12.50;67.30;;;;;;4870113;29;20086;-80
2023/01/01 02:48:47;;;;;;;64.88;34.65;;;12.90;66.20;;;;;;4855112;29;20056;-79
2023/01/01 02:51:13;;;;;;;58.53;31.55;;;13.40;65.70;;;;;;4868637;29;20046;-78
2023/01/01 02:53:58;;;;;;;72.65;36.85;;;13.50;65.20;;;;;;4845923;29;20028;-79
2023/01/01 02:56:50;;;;;;;63.38;32.75;;;13.70;64.30;;;;;;4889662;28;20038;-80
2023/01/01 03:02:40;;;;;;;61.38;32.72;;;14.20;62.80;;;;;;4977165;28;20082;-79
2023/01/01 03:05:24;;;;;;;62.83;33.03;;;14.30;62.80;;;;;;4975967;28;20026;-80
2023/01/01 03:08:14;;;;;;;59.80;32.45;;;14.60;62.60;;;;;;4975368;28;20035;-80
2023/01/01 03:10:40;;;;;;;;;;;14.70;61.70;;;;;;4960238;28;20019;-79
2023/01/01 03:13:39;;;;;;;60.60;30.90;;;14.70;61.60;;;;;;4975713;28;20252;-80
2023/01/01 03:16:14;;;;;;;57.63;30.25;;;14.60;62.40;;;;;;4973130;28;20073;-80
2023/01/01 03:19:12;;;;;;;70.97;34.72;;;14.60;61.90;;;;;;4975348;28;20466;-81
2023/01/01 03:21:46;;;;;;;66.35;34.42;;;14.70;61.80;;;;;;4976272;28;20362;-80
2023/01/01 03:24:25;;;;;;;70.30;33.95;;;14.60;62.20;;;;;;4976774;28;20031;-81
2023/01/01 03:26:55;;;;;;;62.10;32.58;;;14.60;62.00;;;;;;4975683;28;20478;-81
2023/01/01 03:29:23;;;;;;;59.83;32.67;;;14.40;62.50;;;;;;4975639;28;20018;-79
2023/01/01 03:31:51;;;;;;;74.43;34.55;;;14.20;63.40;;;;;;4975011;28;20054;-78
2023/01/01 03:34:26;;;;;;;57.60;31.92;;;14.40;62.80;;;;;;4974912;28;20026;-78
2023/01/01 03:36:55;;;;;;;70.43;35.58;;;14.50;62.10;;;;;;4973041;28;20014;-78
2023/01/01 03:39:29;;;;;;;61.55;30.88;;;14.40;62.70;;;;;;4974185;28;20061;-78
2023/01/01 03:42:10;;;;;;;57.63;32.38;;;13.90;63.20;;;;;;4973657;28;20019;-78
2023/01/01 03:44:46;;;;;;;63.47;33.72;;;13.30;65.00;;;;;;4973696;28;20022;-78
2023/01/01 03:47:12;;;;;;;64.10;34.53;;;13.10;65.90;;;;;;4959486;28;20027;-78
2023/01/01 03:49:38;;;;;;;66.15;33.70;;;13.00;66.80;;;;;;4972146;28;20045;-80
2023/01/01 03:52:18;;;;;;;58.38;31.80;;;13.50;65.90;;;;;;4973236;28;20453;-77
2023/01/01 03:55:14;;;;;;;68.43;34.97;;;13.90;64.50;;;;;;4973928;28;20025;-79
2023/01/01 03:57:47;;;;;;;61.00;33.13;;;14.10;63.70;;;;;;4973813;28;20069;-79
2023/01/01 04:00:20;;;;;;;66.13;34.95;;;14.00;63.00;;;;;;4974793;28;20470;-79
2023/01/01 04:02:52;;;;;;;67.63;33.95;;;13.60;64.40;;;;;;4973575;28;20031;-79
2023/01/01 04:05:19;;;;;;;64.40;34.17;;;13.70;63.90;;;;;;4973931;28;20025;-80
2023/01/01 04:07:46;;;;;;;73.72;35.90;;;13.80;63.80;;;;;;4972990;28;20039;-79
2023/01/01 04:10:18;;;;;;;68.43;34.88;;;13.90;63.60;;;;;;4974434;28;20034;-79
2023/01/01 04:12:52;;;;;;;65.43;34.95;;;13.60;64.00;;;;;;4974869;28;20038;-79
2023/01/01 04:15:20;;;;;;;79.07;40.15;;;13.80;63.40;;;;;;4974742;28;20058;-79
2023/01/01 04:17:46;;;;;;;83.43;39.08;;;14.10;63.00;;;;;;4973762;28;20034;-80
2023/01/01 04:20:13;;;;;;;66.95;35.17;;;14.40;62.10;;;;;;4975753;28;20021;-79
2023/01/01 04:22:39;;;;;;;68.63;35.97;;;14.40;61.60;;;;;;4972855;28;20022;-78
2023/01/01 04:25:05;;;;;;;68.35;34.95;;;14.30;61.90;;;;;;4970856;28;20035;-78
2023/01/01 04:27:31;;;;;;;69.00;34.83;;;14.20;62.00;;;;;;4958844;28;20070;-78
2023/01/01 04:29:57;;;;;;;83.25;36.83;;;14.30;61.70;;;;;;4973496;28;20050;-79
2023/01/01 04:32:23;;;;;;;79.97;38.42;;;14.10;61.90;;;;;;4989730;28;20041;-80
2023/01/01 04:34:48;;;;;;;81.22;37.00;;;14.10;62.00;;;;;;4974061;28;20027;-79
2023/01/01 04:37:14;;;;;;;74.13;36.38;;;14.10;62.00;;;;;;4989446;28;20537;-80
2023/01/01 04:39:40;;;;;;;83.13;42.17;;;13.90;62.70;;;;;;4973672;28;20369;-79
2023/01/01 04:42:05;;;;;;;72.78;37.88;;;13.90;62.70;;;;;;4973057;28;20030;-80
2023/01/01 04:44:31;;;;;;;89.57;42.03;;;14.00;62.20;;;;;;4973830;28;20018;-80
2023/01/01 04:46:57;;;;;;;101.93;46.40;;;14.00;62.00;;;;;;4989954;28;20035;-80
2023/01/01 04:49:23;;;;;;;99.18;45.47;;;14.10;61.80;;;;;;4989847;28;20117;-79
2023/01/01 04:51:48;;;;;;;129.75;50.78;;;14.10;61.90;;;;;;4972556;28;20378;-80
2023/01/01 04:54:14;;;;;;;125.43;49.13;;;14.10;61.70;;;;;;4988037;28;20019;-80
2023/01/01 04:56:40;;;;;;;127.40;48.63;;;13.90;61.50;;;;;;4974893;28;20033;-79
2023/01/01 04:59:05;;;;;;;126.47;52.42;;;13.70;62.40;;;;;;4974468;28;20023;-79
2023/01/01 05:01:31;;;;;;;154.15;54.33;;;13.60;62.70;;;;;;4989256;28;20073;-79
2023/01/01 05:03:58;;;;;;;139.73;53.75;;;13.50;62.80;;;;;;4974715;28;20102;-79
2023/01/01 05:06:25;;;;;;;154.85;57.47;;;13.40;62.90;;;;;;4973179;28;20043;-79
2023/01/01 05:08:56;;;;;;;153.35;55.10;;;13.20;64.30;;;;;;4974806;28;20038;-79
2023/01/01 05:11:22;;;;;;;;;;;12.90;64.30;;;;;;4973741;28;20102;-79
2023/01/01 05:13:50;;;;;;;148.00;49.42;;;12.90;64.60;;;;;;4974457;28;19902;-82
2023/01/01 05:16:22;;;;;;;123.07;47.50;;;12.80;65.00;;;;;;4974950;28;20099;-78
2023/01/01 05:18:48;;;;;;;143.75;45.45;;;12.60;65.40;;;;;;4973723;28;20023;-80
2023/01/01 05:21:17;;;;;;;126.82;49.20;;;12.30;66.10;;;;;;4974481;28;20023;-82
2023/01/01 05:23:43;;;;;;;117.03;46.33;;;12.00;67.20;;;;;;4989612;28;20023;-78
2023/01/01 05:26:18;;;;;;;113.07;43.67;;;12.00;67.40;;;;;;4989486;28;20031;-78
2023/01/01 05:28:44;;;;;;;115.30;44.42;;;11.90;67.60;;;;;;4972364;28;20436;-80
2023/01/01 05:31:19;;;;;;;159.43;49.05;;;11.60;68.30;;;;;;4972717;28;20686;-79
2023/01/01 05:33:45;;;;;;;138.48;51.00;;;11.20;69.30;;;;;;4974280;28;20099;-78
2023/01/01 05:36:15;;;;;;;125.88;47.08;;;11.30;70.00;;;;;;4986939;28;20149;-80
2023/01/01 05:38:40;;;;;;;100.00;44.40;;;11.50;69.00;;;;;;4972801;28;20027;-79
2023/01/01 05:41:07;;;;;;;108.90;45.45;;;11.70;68.60;;;;;;4970063;28;20027;-78
2023/01/01 05:43:34;;;;;;;108.82;47.58;;;11.90;68.00;;;;;;4955457;28;20027;-81
2023/01/01 05:46:09;;;;;;;127.57;48.47;;;12.10;67.30;;;;;;4972843;28;20018;-83
2023/01/01 05:48:36;;;;;;;120.78;47.90;;;12.30;66.10;;;;;;4988980;28;20382;-81
2023/01/01 05:51:08;;;;;;;112.88;48.03;;;12.50;66.10;;;;;;4974928;28;20180;-78
2023/01/01 05:53:35;;;;;;;97.60;41.15;;;12.90;65.20;;;;;;4976119;28;20077;-80
2023/01/01 05:56:01;;;;;;;83.63;39.67;;;13.00;64.40;;;;;;4972563;28;20022;-79
2023/01/01 05:58:28;;;;;;;83.82;39.78;;;12.90;64.30;;;;;;4992403;28;20070;-79
2023/01/01 06:00:54;;;;;;;99.93;43.67;;;12.40;65.10;;;;;;4976929;28;20508;-79
2023/01/01 06:03:20;;;;;;;96.93;44.15;;;12.00;66.30;;;;;;4977695;28;20025;-79
2023/01/01 06:05:46;;;;;;;98.80;43.60;;;12.00;67.00;;;;;;4976241;28;20352;-79
2023/01/01 06:08:12;;;;;;;93.15;41.13;;;12.50;66.30;;;;;;4977380;28;20046;-80
2023/01/01 06:10:38;;;;;;;85.32;40.20;;;12.90;65.20;;;;;;4978051;28;20019;-80
2023/01/01 06:13:04;;;;;;;96.57;41.20;;;13.10;63.90;;;;;;4975851;28;20035;-80
2023/01/01 06:15:29;;;;;;;71.10;37.72;;;13.20;63.10;;;;;;4992955;28;20023;-81
2023/01/01 06:17:57;;;;;;;80.95;38.95;;;13.10;63.30;;;;;;4992738;28;20033;-79
2023/01/01 06:20:23;;;;;;;112.80;44.97;;;13.10;63.70;;;;;;4976219;28;20063;-79
2023/01/01 06:22:48;;;;;;;75.22;37.90;;;13.30;63.80;;;;;;4976114;28;20057;-80
2023/01/01 06:25:14;;;;;;;67.78;35.22;;;13.20;63.90;;;;;;4977035;28;20027;-78
2023/01/01 06:27:39;;;;;;;67.68;36.55;;;13.10;63.40;;;;;;4976452;28;20034;-79
2023/01/01 06:30:06;;;;;;;67.30;36.00;;;13.00;63.50;;;;;;4977190;28;20038;-78
2023/01/01 06:32:32;;;;;;;70.53;36.20;;;13.00;64.10;;;;;;4976003;28;20059;-79
2023/01/01 06:34:58;;;;;;;72.03;36.95;;;13.10;63.30;;;;;;4972209;28;20027;-80
2023/01/01 06:37:24;;;;;;;67.03;35.90;;;13.20;63.10;;;;;;4957786;28;20460;-79
2023/01/01 06:39:50;;;;;;;64.40;34.25;;;13.30;62.90;;;;;;4976411;28;20130;-78
2023/01/01 06:42:15;;;;;;;67.95;36.00;;;13.30;62.60;;;;;;4976713;28;20038;-79
2023/01/01 06:44:41;;;;;;;60.20;34.28;;;13.20;62.70;;;;;;4977258;28;20091;-79
2023/01/01 06:47:07;;;;;;;70.50;39.47;;;13.10;63.50;;;;;;4988727;28;20096;-78
2023/01/01 06:49:32;;;;;;;86.30;44.58;;;13.00;63.30;;;;;;4975683;28;20370;-78
2023/01/01 06:51:58;;;;;;;90.60;48.63;;;13.00;63.80;;;;;;4975320;28;20051;-79
2023/01/01 06:54:24;;;;;;;73.35;39.58;;;13.10;63.50;;;;;;4976853;28;20015;-79
2023/01/01 06:56:50;;;;;;;75.45;41.08;;;13.20;62.90;;;;;;4975228;28;20023;-79
2023/01/01 06:59:16;;;;;;;106.72;55.78;;;13.00;63.20;;;;;;4991751;28;20019;-79
2023/01/01 07:01:42;;;;;;;78.35;43.47;;;13.10;63.50;;;;;;4990441;28;20113;-79
2023/01/01 07:04:12;;;;;;;76.85;42.33;;;13.30;63.10;;;;;;4975874;28;20107;-77
2023/01/01 07:06:38;;;;;;;67.07;39.47;;;13.50;62.70;;;;;;4975391;28;20466;-79
2023/01/01 07:09:05;;;;;;;58.90;33.97;;;13.60;62.50;;;;;;4976208;28;20597;-79
2023/01/01 07:11:31;;;;;;;68.57;37.50;;;13.70;62.10;;;;;;4964754;28;20023;-80
2023/01/01 07:13:58;;;;;;;80.43;43.90;;;13.70;61.90;;;;;;4971989;28;20020;-79
2023/01/01 07:16:24;;;;;;;152.15;79.18;;;13.70;62.30;;;;;;4975717;28;20042;-79
2023/01/01 07:18:50;;;;;;;81.90;46.58;;;13.80;62.00;;;;;;4974764;28;20027;-78
2023/01/01 07:21:44;;;;;;;63.10;33.97;;;13.90;61.50;;;;;;4976277;28;20030;-80
2023/01/01 07:24:12;;;;;;;66.20;36.08;;;13.90;61.70;;;;;;4975047;28;20027;-79
2023/01/01 07:26:39;;;;;;;62.72;33.85;;;14.00;61.20;;;;;;4973965;28;20057;-79
2023/01/01 07:29:07;;;;;;;65.95;36.45;;;13.90;62.20;;;;;;4990991;28;20073;-79
2023/01/01 07:31:37;;;;;;;70.03;37.08;;;13.70;62.40;;;;;;4974953;28;20120;-79
2023/01/01 07:34:08;;;;;;;58.35;33.33;;;13.70;62.20;;;;;;4974357;28;20102;-80
2023/01/01 07:36:34;;;;;;;61.83;34.03;;;13.70;62.50;;;;;;4975186;28;20058;-80
2023/01/01 07:38:59;;;;;;;65.90;34.60;;;13.80;62.10;;;;;;4974508;28;20061;-80
2023/01/01 07:41:25;;;;;;;67.22;35.08;;;13.90;62.60;;;;;;4971121;28;20050;-81
2023/01/01 07:43:51;;;;;;;62.40;33.85;;;14.10;62.20;;;;;;4966499;28;20014;-80
2023/01/01 07:46:18;;;;;;;72.25;36.45;;;14.30;61.60;;;;;;4975733;28;20031;-78
2023/01/01 07:48:43;;;;;;;61.00;33.42;;;14.30;61.40;;;;;;4975398;28;20018;-80
2023/01/01 07:51:09;;;;;;;59.90;33.67;;;14.40;61.90;;;;;;4989038;28;20030;-81
2023/01/01 07:53:35;;;;;;;61.75;33.42;;;14.50;61.30;;;;;;4965387;28;20038;-81
2023/01/01 07:56:01;;;;;;;60.22;32.90;;;14.40;61.40;;;;;;4954893;29;20121;-80
2023/01/01 07:58:26;;;;;;;60.03;33.65;;;14.50;61.70;;;;;;4971412;28;20027;-80
2023/01/01 08:00:52;;;;;;;63.58;35.35;;;14.60;61.00;;;;;;4979604;28;20028;-79
2023/01/01 08:03:18;;;;;;;61.97;34.90;;;14.50;61.30;;;;;;4971922;28;20477;-80
2023/01/01 08:05:44;;;;;;;62.25;35.03;;;14.50;61.70;;;;;;4960803;28;20033;-80
2023/01/01 08:08:10;;;;;;;63.75;36.80;;;14.60;61.40;;;;;;4955521;28;20027;-79
2023/01/01 08:10:36;;;;;;;60.38;35.55;;;14.50;61.80;;;;;;4974795;28;20027;-79
2023/01/01 08:13:05;;;;;;;60.58;34.00;;;14.60;61.40;;;;;;4969995;28;20015;-81
2023/01/01 08:15:31;;;;;;;75.90;45.42;;;14.70;60.90;;;;;;4970583;28;20026;-80
2023/01/01 08:17:58;;;;;;;59.67;37.03;;;14.60;61.30;;;;;;4965957;28;20405;-79
2023/01/01 08:20:24;;;;;;;92.55;50.28;;;14.00;62.40;;;;;;4970567;28;20086;-78
2023/01/01 08:22:50;;;;;;;89.18;46.03;;;13.90;63.10;;;;;;4966663;28;20026;-79
2023/01/01 08:25:16;;;;;;;67.32;35.50;;;14.00;63.10;;;;;;4957120;28;20023;-80
2023/01/01 08:27:41;;;;;;;74.13;40.45;;;14.20;62.90;;;;;;4954756;29;20537;-81
2023/01/01 08:30:09;;;;;;;59.65;33.00;;;14.30;62.40;;;;;;4981901;28;20106;-79
2023/01/01 08:32:34;;;;;;;57.28;31.38;;;14.30;62.50;;;;;;4973401;28;20057;-81
2023/01/01 08:35:00;;;;;;;57.80;34.45;;;14.30;62.60;;;;;;4973216;28;20386;-80
2023/01/01 08:37:26;;;;;;;57.38;32.88;;;14.40;61.70;;;;;;4972713;28;20054;-80
2023/01/01 08:39:51;;;;;;;70.00;35.80;;;14.40;62.00;;;;;;4988414;28;20038;-79
2023/01/01 08:42:17;;;;;;;63.78;33.75;;;14.60;61.60;;;;;;4984787;28;20096;-80
2023/01/01 08:44:43;;;;;;;71.75;36.97;;;14.80;61.10;;;;;;4994391;28;20405;-81
2023/01/01 08:47:20;;;;;;;66.15;34.70;;;14.90;61.10;;;;;;4974408;28;20030;-80
2023/01/01 08:49:46;;;;;;;62.65;35.17;;;14.90;60.50;;;;;;4989940;28;20023;-80
2023/01/01 08:52:12;;;;;;;55.00;32.63;;;14.80;60.90;;;;;;4966250;28;20452;-80
2023/01/01 08:54:38;;;;;;;65.63;33.67;;;14.70;61.50;;;;;;4970608;28;20117;-79
2023/01/01 08:57:04;;;;;;;60.38;33.85;;;14.60;61.50;;;;;;4973158;28;20118;-80
2023/01/01 08:59:30;;;;;;;57.80;32.10;;;14.80;61.50;;;;;;4973399;28;20105;-81
2023/01/01 09:01:55;;;;;;;54.70;31.50;;;14.70;61.00;;;;;;4974654;28;20327;-80
2023/01/01 09:04:21;;;;;;;60.47;32.22;;;14.80;61.20;;;;;;4973520;28;20019;-80
2023/01/01 09:06:47;;;;;;;67.70;39.92;;;14.80;61.50;;;;;;4988973;28;20030;-81
2023/01/01 09:09:12;;;;;;;77.53;42.05;;;14.80;61.10;;;;;;4972804;28;20027;-80
2023/01/01 09:11:38;;;;;;;67.47;36.83;;;14.80;61.20;;;;;;4989298;28;20485;-81
2023/01/01 09:14:04;;;;;;;60.13;33.45;;;14.90;60.80;;;;;;4968002;28;20419;-78
2023/01/01 09:16:29;;;;;;;55.15;31.40;;;14.50;61.50;;;;;;4989388;28;20110;-80
2023/01/01 09:18:55;;;;;;;65.43;34.05;;;14.10;62.70;;;;;;4972116;28;20019;-80
2023/01/01 09:21:21;;;;;;;70.65;40.83;;;13.60;64.20;;;;;;4960399;28;20027;-80
2023/01/01 09:23:47;;;;;;;62.80;34.58;;;13.80;64.30;;;;;;4964024;28;20485;-79
2023/01/01 09:26:12;;;;;;;57.22;30.95;;;14.20;63.40;;;;;;4966865;28;20256;-79
2023/01/01 09:28:38;;;;;;;51.53;30.27;;;14.70;62.40;;;;;;4962212;28;20027;-80
2023/01/01 09:31:07;;;;;;;63.40;33.05;;;15.00;61.30;;;;;;4953144;28;20027;-77
2023/01/01 09:33:33;;;;;;;81.65;40.00;;;15.00;61.30;;;;;;4967750;28;20374;-81
2023/01/01 09:36:19;;;;;;;77.45;40.85;;;15.20;61.20;;;;;;4961595;28;20023;-80
2023/01/01 09:38:48;;;;;;;75.35;39.22;;;15.30;60.70;;;;;;4960076;28;20405;-82
2023/01/01 09:41:29;;;;;;;95.00;49.33;;;15.30;60.80;;;;;;4993138;28;20078;-77
2023/01/01 09:44:32;;;;;;;70.07;38.47;;;15.30;60.60;;;;;;4960572;28;20015;-80
2023/01/01 09:47:02;;;;;;;77.57;41.00;;;15.30;60.60;;;;;;4973038;28;20370;-81
2023/01/01 09:49:38;;;;;;;80.25;42.53;;;15.20;61.00;;;;;;4975811;28;20098;-79
2023/01/01 09:52:05;;;;;;;78.07;43.58;;;14.70;62.10;;;;;;4959338;28;20046;-76
2023/01/01 09:54:37;;;;;;;62.50;34.35;;;14.60;62.70;;;;;;4986161;28;20027;-78
2023/01/01 09:57:07;;;;;;;51.58;30.80;;;14.60;62.40;;;;;;4972883;28;20042;-81
2023/01/01 09:59:36;;;;;;;65.28;35.22;;;14.70;62.20;;;;;;4972931;28;20106;-81
2023/01/01 10:02:19;;;;;;;51.33;31.70;;;14.60;62.20;;;;;;4958041;28;20023;-80
2023/01/01 10:04:57;;;;;;;55.42;33.83;;;14.50;62.50;;;;;;4632259;28;9999927;-79
2023/01/01 10:07:47;;;;;;;51.72;30.73;;;14.30;62.50;;;;;;4969899;28;20225;-79
2023/01/01 10:10:31;;;;;;;46.38;26.90;;;13.70;64.30;;;;;;4971123;28;20187;-79
2023/01/01 10:13:26;;;;;;;49.95;29.38;;;13.00;65.70;;;;;;4971803;28;20430;-77
2023/01/01 10:16:17;;;;;;;56.53;32.40;;;12.50;69.00;;;;;;4983711;28;20034;-78
2023/01/01 10:18:45;;;;;;;41.03;25.08;;;13.20;67.80;;;;;;4967420;28;20117;-79
2023/01/01 10:21:28;;;;;;;37.80;22.73;;;13.90;65.50;;;;;;4971339;28;20019;-78
2023/01/01 10:24:01;;;;;;;41.10;23.85;;;14.30;63.90;;;;;;4969921;28;20023;-78
2023/01/01 10:26:29;;;;;;;41.83;23.88;;;14.30;63.60;;;;;;4965519;28;20430;-80
2023/01/01 10:29:23;;;;;;;39.75;25.48;;;14.80;63.50;;;;;;4968549;28;20026;-80
2023/01/01 10:31:49;;;;;;;48.83;34.55;;;15.10;62.10;;;;;;4967830;28;20038;-82
2023/01/01 10:34:17;;;;;;;44.40;27.25;;;15.20;62.20;;;;;;4970796;28;20037;-80
2023/01/01 10:36:43;;;;;;;52.75;32.42;;;15.30;62.20;;;;;;4983319;28;20031;-78
2023/01/01 10:39:16;;;;;;;62.13;37.75;;;15.20;62.00;;;;;;4972153;28;20018;-79
2023/01/01 10:41:45;;;;;;;48.97;31.70;;;14.80;62.50;;;;;;4971886;28;20114;-80
2023/01/01 10:44:14;;;;;;;61.17;34.63;;;14.50;64.40;;;;;;4967765;28;20441;-79
2023/01/01 10:46:47;;;;;;;50.20;31.90;;;14.60;63.70;;;;;;4956233;28;20430;-77
2023/01/01 10:49:14;;;;;;;53.30;31.67;;;14.50;63.50;;;;;;4617735;28;10000089;-79
2023/01/01 10:51:47;;;;;;;59.95;32.28;;;14.50;64.20;;;;;;4973989;28;20050;-79
2023/01/01 10:54:31;;;;;;;57.13;32.17;;;14.70;63.50;;;;;;4973673;28;20018;-78
2023/01/01 10:56:57;;;;;;;48.22;27.30;;;14.90;63.70;;;;;;4616856;28;10000530;-78
2023/01/01 10:59:34;;;;;;;47.13;26.75;;;15.30;62.50;;;;;;4969040;28;20031;-84
2023/01/01 11:02:29;;;;;;;50.17;27.48;;;15.40;61.60;;;;;;4975334;28;20047;-83
2023/01/01 11:05:17;;;;;;;42.95;26.38;;;15.30;62.00;;;;;;4976455;28;20035;-78
2023/01/01 11:07:44;;;;;;;46.42;27.60;;;15.30;62.20;;;;;;4958236;28;20035;-78
2023/01/01 11:10:28;;;;;;;44.83;25.35;;;15.40;62.20;;;;;;4970520;28;20030;-80
2023/01/01 11:12:54;;;;;;;44.65;26.27;;;15.60;62.10;;;;;;4972330;28;20085;-79
2023/01/01 11:15:35;;;;;;;43.92;26.60;;;15.80;61.10;;;;;;4965418;28;20027;-81
2023/01/01 11:18:13;;;;;;;43.42;27.10;;;15.90;61.10;;;;;;4971094;28;20146;-77
2023/01/01 11:20:39;;;;;;;45.10;27.00;;;16.10;61.10;;;;;;4961105;28;20023;-81
2023/01/01 11:23:34;;;;;;;51.30;29.40;;;16.20;60.60;;;;;;4626377;28;10000439;-79
2023/01/01 11:26:20;;;;;;;54.53;28.80;;;16.40;60.40;;;;;;4973284;28;20015;-80
2023/01/01 11:29:16;;;;;;;53.53;29.02;;;16.10;61.20;;;;;;4973051;28;20377;-80
2023/01/01 11:31:45;;;;;;;50.80;27.48;;;15.60;62.20;;;;;;4960482;28;20019;-77
2023/01/01 11:34:31;;;;;;;49.13;28.65;;;15.60;62.20;;;;;;4961226;28;20031;-79
2023/01/01 11:37:32;;;;;;;55.40;28.75;;;15.70;61.90;;;;;;4967142;28;20474;-79
2023/01/01 11:39:57;;;;;;;;;;;15.90;61.90;;;;;;4973759;28;20026;-82
2023/01/01 11:42:30;;;;;;;43.67;24.77;;;16.00;61.50;;;;;;4970261;28;19914;-80
2023/01/01 11:45:00;;;;;;;51.03;27.67;;;16.10;61.60;;;;;;4986825;28;20415;-79
2023/01/01 11:47:38;;;;;;;58.30;31.02;;;16.20;61.30;;;;;;4970634;28;20402;-80
2023/01/01 11:50:13;;;;;;;46.65;27.88;;;16.20;61.00;;;;;;4984248;28;20027;-77
2023/01/01 11:52:42;;;;;;;52.30;27.63;;;16.20;61.30;;;;;;4971754;28;20058;-79
2023/01/01 11:55:25;;;;;;;52.03;29.60;;;16.30;61.40;;;;;;4970783;28;20026;-79
2023/01/01 11:58:00;;;;;;;46.03;25.67;;;16.30;61.30;;;;;;4970568;28;20065;-77
2023/01/01 12:00:31;;;;;;;46.13;26.55;;;16.20;61.30;;;;;;4969851;28;20057;-79
2023/01/01 12:03:10;;;;;;;48.58;26.70;;;16.20;61.60;;;;;;4957385;28;20024;-81
2023/01/01 12:06:11;;;;;;;49.17;27.83;;;16.10;62.00;;;;;;4986652;28;20373;-78
2023/01/01 12:08:43;;;;;;;55.15;29.60;;;16.30;61.30;;;;;;4968787;28;20047;-82
2023/01/01 12:11:37;;;;;;;50.03;27.58;;;16.30;61.70;;;;;;4968123;28;20498;-79
2023/01/01 12:14:15;;;;;;;54.20;27.92;;;16.30;61.30;;;;;;4953473;29;20554;-82
2023/01/01 12:16:51;;;;;;;50.30;28.48;;;16.40;61.60;;;;;;4957827;28;20619;-81
2023/01/01 12:19:38;;;;;;;52.55;29.77;;;16.60;61.40;;;;;;4954725;28;20117;-77
2023/01/01 12:22:16;;;;;;;51.35;28.88;;;16.70;60.80;;;;;;4968392;28;20111;-82
2023/01/01 12:24:43;;;;;;;49.22;27.85;;;16.70;60.80;;;;;;4954042;28;20030;-83
2023/01/01 12:27:27;;;;;;;46.10;27.88;;;16.50;61.00;;;;;;4969593;28;20065;-79
2023/01/01 12:29:58;;;;;;;44.28;26.77;;;16.00;61.60;;;;;;4973251;28;20118;-83
2023/01/01 12:32:42;;;;;;;52.20;29.33;;;15.50;63.10;;;;;;4971143;28;20089;-80
2023/01/01 12:35:20;;;;;;;46.58;26.30;;;15.60;63.60;;;;;;4983985;28;20047;-80
2023/01/01 12:38:15;;;;;;;46.30;28.50;;;15.80;63.20;;;;;;4962356;28;20109;-78
2023/01/01 12:40:41;;;;;;;47.40;27.95;;;16.20;62.20;;;;;;4953479;28;20043;-81
2023/01/01 12:43:42;;;;;;;38.15;24.20;;;16.10;61.90;;;;;;4954094;28;20022;-78
2023/01/01 12:46:22;;;;;;;;;;;15.60;63.80;;;;;;4954146;28;20029;-81
2023/01/01 12:49:02;;;;;;;44.17;24.88;;;15.50;64.10;;;;;;4971484;28;19925;-78
2023/01/01 12:51:28;;;;;;;50.50;31.43;;;15.20;65.00;;;;;;4965448;28;20042;-80